createdAt,value
2018-07-24T00:00:09.662Z,22.10
2018-07-24T00:02:37.141Z,22.10
2018-07-24T00:05:04.578Z,22.00
2018-07-24T00:07:31.966Z,22.00
2018-07-24T00:10:00.762Z,21.90
2018-07-24T00:12:32.144Z,21.90
2018-07-24T00:15:00.830Z,21.90
2018-07-24T00:17:28.226Z,21.70
2018-07-24T00:19:55.591Z,21.80
2018-07-24T00:22:22.987Z,21.80
2018-07-24T00:24:50.373Z,21.80
2018-07-24T00:27:17.784Z,21.80
2018-07-24T00:29:45.184Z,21.70
2018-07-24T00:32:12.548Z,21.70
2018-07-24T00:34:39.938Z,21.70
2018-07-24T00:37:07.261Z,21.70
2018-07-24T00:39:34.890Z,21.70
2018-07-24T00:42:02.498Z,21.60
2018-07-24T00:44:30.636Z,21.60
2018-07-24T00:46:58.072Z,21.80
2018-07-24T00:49:25.413Z,21.50
2018-07-24T00:51:52.798Z,21.50
2018-07-24T00:54:20.233Z,21.50
2018-07-24T00:56:47.623Z,21.50
2018-07-24T00:59:15.014Z,21.50
2018-07-24T01:01:42.341Z,21.50
2018-07-24T01:04:10.175Z,21.50
2018-07-24T01:06:37.555Z,21.40
2018-07-24T01:09:06.466Z,21.30
2018-07-24T01:11:33.933Z,21.20
2018-07-24T01:14:01.262Z,21.30
2018-07-24T01:18:56.805Z,21.20
2018-07-24T01:21:24.327Z,21.20
2018-07-24T01:23:51.683Z,21.70
2018-07-24T01:26:19.038Z,21.20
2018-07-24T01:28:46.402Z,21.20
2018-07-24T01:31:13.725Z,21.20
2018-07-24T01:33:41.088Z,21.10
2018-07-24T01:36:08.426Z,21.10
2018-07-24T01:38:35.809Z,21.00
2018-07-24T01:41:03.566Z,21.10
2018-07-24T01:43:30.890Z,21.00
2018-07-24T01:45:58.234Z,21.00
2018-07-24T01:48:26.314Z,21.00
2018-07-24T01:50:53.686Z,21.00
2018-07-24T01:53:21.238Z,21.00
2018-07-24T01:55:48.631Z,21.00
2018-07-24T01:58:16.001Z,21.00
2018-07-24T02:00:43.518Z,20.90
2018-07-24T02:03:11.006Z,20.90
2018-07-24T02:05:38.403Z,20.90
2018-07-24T02:08:05.795Z,20.90
2018-07-24T02:10:33.186Z,20.70
2018-07-24T02:13:00.559Z,20.80
2018-07-24T02:15:28.432Z,20.70
2018-07-24T02:17:55.834Z,20.70
2018-07-24T02:20:23.255Z,20.70
2018-07-24T02:22:50.735Z,20.50
2018-07-24T02:25:18.175Z,20.60
2018-07-24T02:27:46.876Z,20.60
2018-07-24T02:30:14.419Z,20.60
2018-07-24T02:32:41.819Z,20.60
2018-07-24T02:35:09.290Z,20.60
2018-07-24T02:37:36.673Z,20.60
2018-07-24T02:40:04.132Z,20.60
2018-07-24T02:42:31.595Z,20.30
2018-07-24T02:44:59.144Z,20.50
2018-07-24T02:47:26.564Z,20.40
2018-07-24T02:52:21.266Z,20.50
2018-07-24T02:54:48.667Z,20.80
2018-07-24T02:57:16.057Z,20.50
2018-07-24T02:59:43.483Z,20.50
2018-07-24T03:02:10.846Z,20.40
2018-07-24T03:04:38.337Z,20.40
2018-07-24T03:07:05.715Z,20.70
2018-07-24T03:09:33.099Z,20.40
2018-07-24T03:12:00.501Z,20.30
2018-07-24T03:14:27.856Z,20.30
2018-07-24T03:16:55.259Z,20.30
2018-07-24T03:19:22.634Z,20.30
2018-07-24T03:21:50.029Z,20.20
2018-07-24T03:24:17.441Z,20.20
2018-07-24T03:26:44.803Z,20.20
2018-07-24T03:29:12.218Z,20.20
2018-07-24T03:31:39.566Z,20.20
2018-07-24T03:34:06.978Z,20.20
2018-07-24T03:36:34.735Z,20.20
2018-07-24T03:39:02.090Z,20.20
2018-07-24T03:41:29.425Z,20.10
2018-07-24T03:43:56.835Z,20.10
2018-07-24T03:46:24.215Z,20.10
2018-07-24T03:48:51.613Z,20.10
2018-07-24T03:51:18.998Z,19.90
2018-07-24T03:53:47.173Z,20.00
2018-07-24T03:56:14.566Z,20.20
2018-07-24T03:58:41.958Z,20.00
2018-07-24T04:01:09.368Z,20.00
2018-07-24T04:03:36.702Z,20.00
2018-07-24T04:06:04.059Z,20.00
2018-07-24T04:08:31.416Z,20.00
2018-07-24T04:10:58.778Z,20.20
2018-07-24T04:13:26.134Z,20.00
2018-07-24T04:15:53.509Z,20.00
2018-07-24T04:18:20.906Z,20.00
2018-07-24T04:20:48.304Z,20.00
2018-07-24T04:23:15.641Z,19.90
2018-07-24T04:25:42.971Z,19.90
2018-07-24T04:28:10.368Z,19.90
2018-07-24T04:30:37.766Z,20.20
2018-07-24T04:33:05.118Z,20.00
2018-07-24T04:35:32.474Z,20.00
2018-07-24T04:37:59.824Z,20.00
2018-07-24T04:40:27.160Z,20.00
2018-07-24T04:42:54.539Z,20.00
2018-07-24T04:45:22.136Z,20.20
2018-07-24T04:47:49.487Z,20.10
2018-07-24T04:50:16.793Z,20.10
2018-07-24T04:52:44.148Z,20.40
2018-07-24T04:55:11.506Z,20.40
2018-07-24T04:57:39.074Z,20.10
2018-07-24T05:00:06.818Z,20.20
2018-07-24T05:02:34.202Z,20.20
2018-07-24T05:05:01.634Z,20.20
2018-07-24T05:07:28.948Z,20.10
2018-07-24T05:09:56.327Z,20.30
2018-07-24T05:12:23.725Z,20.30
2018-07-24T05:14:51.088Z,20.40
2018-07-24T05:17:18.461Z,20.40
2018-07-24T05:19:45.835Z,20.40
2018-07-24T05:22:13.189Z,20.50
2018-07-24T05:27:07.966Z,20.60
2018-07-24T05:29:35.430Z,20.90
2018-07-24T05:32:02.810Z,20.80
2018-07-24T05:34:30.177Z,20.90
2018-07-24T05:36:57.562Z,20.90
2018-07-24T05:39:24.933Z,21.20
2018-07-24T05:41:52.250Z,21.10
2018-07-24T05:44:19.590Z,21.10
2018-07-24T05:46:47.001Z,21.30
2018-07-24T05:49:15.181Z,21.30
2018-07-24T05:51:42.619Z,21.50
2018-07-24T05:54:09.958Z,21.60
2018-07-24T05:56:49.522Z,21.80
2018-07-24T05:59:16.897Z,21.90
2018-07-24T06:01:44.285Z,22.00
2018-07-24T06:04:11.906Z,22.10
2018-07-24T06:06:39.323Z,22.40
2018-07-24T06:09:07.578Z,22.50
2018-07-24T06:11:35.208Z,22.50
2018-07-24T06:14:02.866Z,22.60
2018-07-24T06:16:31.757Z,22.80
2018-07-24T06:18:59.177Z,22.80
2018-07-24T06:21:26.542Z,23.00
2018-07-24T06:23:54.281Z,23.10
2018-07-24T06:26:21.610Z,23.20
2018-07-24T06:28:48.966Z,23.60
2018-07-24T06:31:16.318Z,23.50
2018-07-24T06:33:44.735Z,23.40
2018-07-24T06:36:12.150Z,23.60
2018-07-24T06:38:39.506Z,23.80
2018-07-24T06:41:06.899Z,23.90
2018-07-24T06:43:34.352Z,24.00
2018-07-24T06:46:01.712Z,24.10
2018-07-24T06:48:29.067Z,24.20
2018-07-24T06:50:56.494Z,24.40
2018-07-24T06:53:23.876Z,24.50
2018-07-24T06:55:51.369Z,24.70
2018-07-24T06:58:18.731Z,24.90
2018-07-24T07:00:46.106Z,25.10
2018-07-24T07:03:13.693Z,25.40
2018-07-24T07:05:41.077Z,25.40
2018-07-24T07:08:08.437Z,25.60
2018-07-24T07:10:37.104Z,25.60
2018-07-24T07:13:04.827Z,25.80
2018-07-24T07:15:32.202Z,25.90
2018-07-24T07:18:00.162Z,26.20
2018-07-24T07:20:27.654Z,26.30
2018-07-24T07:22:54.944Z,26.40
2018-07-24T07:25:22.450Z,26.70
2018-07-24T07:27:49.821Z,27.00
2018-07-24T07:30:17.211Z,27.30
2018-07-24T07:32:44.569Z,27.70
2018-07-24T07:35:11.963Z,27.90
2018-07-24T07:37:39.374Z,28.30
2018-07-24T07:40:06.738Z,28.90
2018-07-24T07:42:34.473Z,29.80
2018-07-24T07:45:01.985Z,31.10
2018-07-24T07:47:29.363Z,32.50
2018-07-24T07:49:57.425Z,34.30
2018-07-24T07:52:24.780Z,36.20
2018-07-24T07:54:54.571Z,38.00
2018-07-24T07:57:21.951Z,39.50
2018-07-24T07:59:49.291Z,41.10
2018-07-24T08:02:16.696Z,42.30
2018-07-24T08:04:44.073Z,43.30
2018-07-24T08:07:11.505Z,43.90
2018-07-24T08:09:38.886Z,44.30
2018-07-24T08:12:06.246Z,45.00
2018-07-24T08:14:33.630Z,45.10
2018-07-24T08:17:00.989Z,45.00
2018-07-24T08:19:28.492Z,45.30
2018-07-24T08:21:55.882Z,45.60
2018-07-24T08:24:23.218Z,45.80
2018-07-24T08:26:50.600Z,46.10
2018-07-24T08:29:17.991Z,46.50
2018-07-24T08:31:45.370Z,46.90
2018-07-24T08:34:12.719Z,47.30
2018-07-24T08:36:40.094Z,47.00
2018-07-24T08:39:08.866Z,46.20
2018-07-24T08:41:36.225Z,44.60
2018-07-24T08:44:03.615Z,42.80
2018-07-24T08:48:58.311Z,39.50
2018-07-24T08:51:25.670Z,38.20
2018-07-24T08:53:53.239Z,37.20
2018-07-24T08:56:20.466Z,36.30
2018-07-24T08:58:47.847Z,35.40
2018-07-24T09:01:15.185Z,34.80
2018-07-24T09:03:42.579Z,34.10
2018-07-24T09:06:09.963Z,33.70
2018-07-24T09:08:37.383Z,33.40
2018-07-24T09:11:04.778Z,33.20
2018-07-24T09:13:32.118Z,32.80
2018-07-24T09:15:59.515Z,32.50
2018-07-24T09:20:54.275Z,32.30
2018-07-24T09:23:21.614Z,32.20
2018-07-24T09:25:48.958Z,32.10
2018-07-24T09:28:16.314Z,32.20
2018-07-24T09:30:43.715Z,32.10
2018-07-24T09:33:11.111Z,32.00
2018-07-24T09:35:38.460Z,32.00
2018-07-24T09:38:05.890Z,31.90
2018-07-24T09:40:33.336Z,31.80
2018-07-24T09:43:00.651Z,31.80
2018-07-24T09:45:28.027Z,31.80
2018-07-24T09:47:55.378Z,31.80
2018-07-24T09:50:22.808Z,31.80
2018-07-24T09:52:50.149Z,31.90
2018-07-24T09:55:17.534Z,32.10
2018-07-24T09:57:44.929Z,32.10
2018-07-24T10:00:12.312Z,32.00
2018-07-24T10:02:39.704Z,32.00
2018-07-24T10:05:07.507Z,32.00
2018-07-24T10:07:34.986Z,32.10
2018-07-24T10:10:02.449Z,32.10
2018-07-24T10:12:29.889Z,32.20
2018-07-24T10:14:57.306Z,32.20
2018-07-24T10:17:24.643Z,32.30
2018-07-24T10:19:52.046Z,32.40
2018-07-24T10:22:19.493Z,32.60
2018-07-24T10:24:46.838Z,32.70
2018-07-24T10:27:14.225Z,32.70
2018-07-24T10:29:41.597Z,32.80
2018-07-24T10:32:09.015Z,32.80
2018-07-24T10:34:36.395Z,32.90
2018-07-24T10:37:03.802Z,33.00
2018-07-24T10:39:31.247Z,32.90
2018-07-24T10:41:58.605Z,33.00
2018-07-24T10:44:25.957Z,33.10
2018-07-24T10:46:53.434Z,33.00
2018-07-24T10:49:20.824Z,33.20
2018-07-24T10:51:48.157Z,33.10
2018-07-24T10:54:15.539Z,33.20
2018-07-24T10:56:42.874Z,33.10
2018-07-24T10:59:10.213Z,33.20
2018-07-24T11:01:37.537Z,33.10
2018-07-24T11:04:04.926Z,33.10
2018-07-24T11:06:32.323Z,32.90
2018-07-24T11:08:59.679Z,33.00
2018-07-24T11:11:27.051Z,33.10
2018-07-24T11:13:54.443Z,33.20
2018-07-24T11:16:21.853Z,33.40
2018-07-24T11:18:49.557Z,33.50
2018-07-24T11:21:16.930Z,33.60
2018-07-24T11:23:44.346Z,33.60
2018-07-24T11:26:11.715Z,33.60
2018-07-24T11:28:39.177Z,33.60
2018-07-24T11:31:12.662Z,33.40
2018-07-24T11:33:40.032Z,33.60
2018-07-24T11:36:07.464Z,33.70
2018-07-24T11:38:34.929Z,33.80
2018-07-24T11:41:02.279Z,33.90
2018-07-24T11:43:29.622Z,33.90
2018-07-24T11:45:56.990Z,33.80
2018-07-24T11:48:24.330Z,33.90
2018-07-24T11:50:51.782Z,34.00
2018-07-24T11:53:19.159Z,34.00
2018-07-24T11:55:46.566Z,34.00
2018-07-24T11:58:13.898Z,34.00
2018-07-24T12:00:41.290Z,34.00
2018-07-24T12:03:08.661Z,34.10
2018-07-24T12:05:36.234Z,34.10
2018-07-24T12:08:03.622Z,34.20
2018-07-24T12:10:30.957Z,34.10
2018-07-24T12:12:58.486Z,34.00
2018-07-24T12:15:25.882Z,34.10
2018-07-24T12:17:53.216Z,34.10
2018-07-24T12:20:20.574Z,34.20
2018-07-24T12:22:47.933Z,34.20
2018-07-24T12:25:15.491Z,34.50
2018-07-24T12:27:42.877Z,34.40
2018-07-24T12:30:10.199Z,34.40
2018-07-24T12:32:37.574Z,34.20
2018-07-24T12:35:04.909Z,34.20
2018-07-24T12:37:32.248Z,34.40
2018-07-24T12:39:59.662Z,34.40
2018-07-24T12:42:27.021Z,34.30
2018-07-24T12:44:54.387Z,34.10
2018-07-24T12:47:21.737Z,34.00
2018-07-24T12:49:49.085Z,34.00
2018-07-24T12:52:16.508Z,34.10
2018-07-24T12:54:43.936Z,34.10
2018-07-24T12:57:11.329Z,34.40
2018-07-24T12:59:38.690Z,34.60
2018-07-24T13:02:06.054Z,34.60
2018-07-24T13:04:33.420Z,34.70
2018-07-24T13:07:00.761Z,34.60
2018-07-24T13:09:28.098Z,34.50
2018-07-24T13:11:55.463Z,34.50
2018-07-24T13:14:22.949Z,34.70
2018-07-24T13:16:50.305Z,34.60
2018-07-24T13:19:17.659Z,34.40
2018-07-24T13:21:45.026Z,34.60
2018-07-24T13:24:12.428Z,34.60
2018-07-24T13:26:39.696Z,34.70
2018-07-24T13:29:07.082Z,34.80
2018-07-24T13:31:34.471Z,34.60
2018-07-24T13:34:01.855Z,34.70
2018-07-24T13:36:29.210Z,34.80
2018-07-24T13:38:56.618Z,34.70
2018-07-24T13:41:24.023Z,34.70
2018-07-24T13:43:51.349Z,34.70
2018-07-24T13:46:18.696Z,34.60
2018-07-24T13:48:46.111Z,34.50
2018-07-24T13:51:13.446Z,34.40
2018-07-24T13:53:40.773Z,34.20
2018-07-24T13:56:08.131Z,34.30
2018-07-24T13:58:36.105Z,34.10
2018-07-24T14:01:03.434Z,34.10
2018-07-24T14:03:30.806Z,34.20
2018-07-24T14:05:58.157Z,34.10
2018-07-24T14:08:25.550Z,34.10
2018-07-24T14:10:52.994Z,34.00
2018-07-24T14:13:20.335Z,33.80
2018-07-24T14:15:47.687Z,33.60
2018-07-24T14:18:15.017Z,33.60
2018-07-24T14:20:42.372Z,33.80
2018-07-24T14:23:09.706Z,34.00
2018-07-24T14:25:37.150Z,34.00
2018-07-24T14:28:04.521Z,34.00
2018-07-24T14:30:31.886Z,34.20
2018-07-24T14:32:59.248Z,34.20
2018-07-24T14:35:26.590Z,34.30
2018-07-24T14:37:54.106Z,34.20
2018-07-24T14:40:21.590Z,34.40
2018-07-24T14:42:49.241Z,34.30
2018-07-24T14:45:16.643Z,34.20
2018-07-24T14:47:45.849Z,34.30
2018-07-24T14:50:15.988Z,34.30
2018-07-24T14:52:44.484Z,34.00
2018-07-24T14:55:12.041Z,34.40
2018-07-24T14:57:39.472Z,34.40
2018-07-24T15:00:06.950Z,34.40
2018-07-24T15:02:34.383Z,34.50
2018-07-24T15:05:02.063Z,34.60
2018-07-24T15:07:29.401Z,34.60
2018-07-24T15:09:56.771Z,34.60
2018-07-24T15:12:24.290Z,34.50
2018-07-24T15:14:52.026Z,34.60
2018-07-24T15:17:19.449Z,34.50
2018-07-24T15:19:46.875Z,34.50
2018-07-24T15:22:14.317Z,34.40
2018-07-24T15:24:41.875Z,34.50
2018-07-24T15:27:09.341Z,34.50
2018-07-24T15:29:36.894Z,34.40
2018-07-24T15:32:04.438Z,34.40
2018-07-24T15:34:32.029Z,34.30
2018-07-24T15:36:59.451Z,34.30
2018-07-24T15:39:26.790Z,34.20
2018-07-24T15:41:54.181Z,34.20
2018-07-24T15:44:21.586Z,34.20
2018-07-24T15:46:49.014Z,34.20
2018-07-24T15:49:16.305Z,34.10
2018-07-24T15:51:44.243Z,34.00
2018-07-24T15:54:23.060Z,34.00
2018-07-24T15:56:50.389Z,34.00
2018-07-24T15:59:17.754Z,34.10
2018-07-24T16:01:45.147Z,34.00
2018-07-24T16:04:12.481Z,33.90
2018-07-24T16:06:39.837Z,33.90
2018-07-24T16:09:08.867Z,34.00
2018-07-24T16:11:36.330Z,33.90
2018-07-24T16:14:03.865Z,33.90
2018-07-24T16:16:31.210Z,33.80
2018-07-24T16:18:58.652Z,33.80
2018-07-24T16:21:26.118Z,33.60
2018-07-24T16:23:53.624Z,33.60
2018-07-24T16:26:21.005Z,33.60
2018-07-24T16:28:48.322Z,33.60
2018-07-24T16:31:15.724Z,33.60
2018-07-24T16:33:43.059Z,33.50
2018-07-24T16:36:10.605Z,33.60
2018-07-24T16:38:38.232Z,33.60
2018-07-24T16:41:05.972Z,33.60
2018-07-24T16:43:33.345Z,33.60
2018-07-24T16:46:00.950Z,33.60
2018-07-24T16:48:28.369Z,33.50
2018-07-24T16:50:55.869Z,33.50
2018-07-24T16:53:24.511Z,33.50
2018-07-24T16:55:53.357Z,33.40
2018-07-24T16:58:20.978Z,33.40
2018-07-24T17:00:48.446Z,33.30
2018-07-24T17:03:15.866Z,33.30
2018-07-24T17:05:43.234Z,33.40
2018-07-24T17:08:10.694Z,33.30
2018-07-24T17:13:08.724Z,33.20
2018-07-24T17:15:36.191Z,33.20
2018-07-24T17:18:03.555Z,33.10
2018-07-24T17:20:30.961Z,33.10
2018-07-24T17:22:58.442Z,33.00
2018-07-24T17:25:26.023Z,33.00
2018-07-24T17:27:53.490Z,33.10
2018-07-24T17:30:20.830Z,32.90
2018-07-24T17:32:52.607Z,32.90
2018-07-24T17:35:20.098Z,32.80
2018-07-24T17:37:47.480Z,32.80
2018-07-24T17:40:14.951Z,32.70
2018-07-24T17:42:42.534Z,32.70
2018-07-24T17:45:10.195Z,32.60
2018-07-24T17:47:37.719Z,32.60
2018-07-24T17:50:05.069Z,32.60
2018-07-24T17:52:32.429Z,32.50
2018-07-24T17:54:59.850Z,32.40
2018-07-24T17:57:27.207Z,32.40
2018-07-24T17:59:54.596Z,32.30
2018-07-24T18:02:21.986Z,32.20
2018-07-24T18:04:49.594Z,32.20
2018-07-24T18:07:16.994Z,32.20
2018-07-24T18:09:44.354Z,32.10
2018-07-24T18:12:11.941Z,32.00
2018-07-24T18:14:39.484Z,31.90
2018-07-24T18:17:07.118Z,31.90
2018-07-24T18:19:35.942Z,31.80
2018-07-24T18:22:03.291Z,31.70
2018-07-24T18:24:30.894Z,31.60
2018-07-24T18:26:58.309Z,31.50
2018-07-24T18:29:25.701Z,31.50
2018-07-24T18:31:53.074Z,31.40
2018-07-24T18:34:20.418Z,31.40
2018-07-24T18:36:48.090Z,31.30
2018-07-24T18:39:15.462Z,31.30
2018-07-24T18:41:42.779Z,31.40
2018-07-24T18:44:10.146Z,31.20
2018-07-24T18:46:37.501Z,31.10
2018-07-24T18:49:04.961Z,31.00
2018-07-24T18:51:32.298Z,30.90
2018-07-24T18:53:59.674Z,30.90
2018-07-24T18:56:27.210Z,30.80
2018-07-24T18:58:54.890Z,30.70
2018-07-24T19:01:22.304Z,30.70
2018-07-24T19:03:49.726Z,30.60
2018-07-24T19:06:17.079Z,30.50
2018-07-24T19:08:44.411Z,30.50
2018-07-24T19:11:11.833Z,30.40
2018-07-24T19:13:39.162Z,30.30
2018-07-24T19:16:06.578Z,30.30
2018-07-24T19:18:34.076Z,30.20
2018-07-24T19:21:01.826Z,30.20
2018-07-24T19:23:29.221Z,30.10
2018-07-24T19:25:56.723Z,30.10
2018-07-24T19:28:24.261Z,30.00
2018-07-24T19:30:51.913Z,30.00
2018-07-24T19:33:19.475Z,29.90
2018-07-24T19:35:47.181Z,29.90
2018-07-24T19:38:14.863Z,29.80
2018-07-24T19:40:42.443Z,29.70
2018-07-24T19:43:15.966Z,29.70
2018-07-24T19:45:43.530Z,29.70
2018-07-24T19:48:11.138Z,29.60
2018-07-24T19:50:38.654Z,29.50
2018-07-24T19:53:06.222Z,29.40
2018-07-24T19:55:33.800Z,29.40
2018-07-24T19:58:01.475Z,29.30
2018-07-24T20:00:29.240Z,29.30
2018-07-24T20:02:56.866Z,29.20
2018-07-24T20:05:24.515Z,29.20
2018-07-24T20:08:00.774Z,29.10
2018-07-24T20:10:28.376Z,29.00
2018-07-24T20:12:55.788Z,29.00
2018-07-24T20:15:23.186Z,28.90
2018-07-24T20:17:50.788Z,28.90
2018-07-24T20:22:46.136Z,28.80
2018-07-24T20:25:13.540Z,28.80
2018-07-24T20:27:41.296Z,28.70
2018-07-24T20:30:08.760Z,28.60
2018-07-24T20:32:36.253Z,28.60
2018-07-24T20:35:04.359Z,28.50
2018-07-24T20:37:38.645Z,28.50
2018-07-24T20:40:06.951Z,28.40
2018-07-24T20:42:34.381Z,28.40
2018-07-24T20:45:01.787Z,28.50
2018-07-24T20:47:29.150Z,28.40
2018-07-24T20:49:56.549Z,28.30
2018-07-24T20:52:23.975Z,28.30
2018-07-24T20:54:51.400Z,28.30
2018-07-24T20:57:19.096Z,28.50
2018-07-24T20:59:46.459Z,28.30
2018-07-24T21:02:13.870Z,28.20
2018-07-24T21:04:41.251Z,28.20
2018-07-24T21:07:08.715Z,28.20
2018-07-24T21:09:36.237Z,28.20
2018-07-24T21:12:03.733Z,28.20
2018-07-24T21:14:31.359Z,28.20
2018-07-24T21:16:58.765Z,28.10
2018-07-24T21:19:26.118Z,28.10
2018-07-24T21:21:53.486Z,28.10
2018-07-24T21:24:20.890Z,28.10
2018-07-24T21:26:48.218Z,28.00
2018-07-24T21:29:15.686Z,28.00
2018-07-24T21:31:43.059Z,28.00
2018-07-24T21:34:10.780Z,28.00
2018-07-24T21:36:38.505Z,27.90
2018-07-24T21:39:07.517Z,27.90
2018-07-24T21:41:34.853Z,27.90
2018-07-24T21:44:02.425Z,27.80
2018-07-24T21:46:29.968Z,27.80
2018-07-24T21:48:57.375Z,27.70
2018-07-24T21:51:24.901Z,27.70
2018-07-24T21:53:52.293Z,27.70
2018-07-24T21:56:19.643Z,27.70
2018-07-24T22:01:14.615Z,27.60
2018-07-24T22:03:42.598Z,27.60
2018-07-24T22:06:10.139Z,27.60
2018-07-24T22:08:38.262Z,27.50
2018-07-24T22:11:05.846Z,27.50
2018-07-24T22:13:33.758Z,27.40
2018-07-24T22:16:01.169Z,27.40
2018-07-24T22:18:28.611Z,27.40
2018-07-24T22:20:55.954Z,27.40
2018-07-24T22:23:23.574Z,27.40
2018-07-24T22:25:51.101Z,27.30
2018-07-24T22:28:18.477Z,27.30
2018-07-24T22:30:45.868Z,27.30
2018-07-24T22:33:13.269Z,27.20
2018-07-24T22:35:40.617Z,27.20
2018-07-24T22:38:08.138Z,27.20
2018-07-24T22:40:35.521Z,27.10
2018-07-24T22:43:03.021Z,27.10
2018-07-24T22:45:31.451Z,27.00
2018-07-24T22:47:58.928Z,27.00
2018-07-24T22:50:26.374Z,27.00
2018-07-24T22:52:53.879Z,26.90
2018-07-24T22:55:21.386Z,26.90
2018-07-24T22:57:49.270Z,26.80
2018-07-24T23:00:16.713Z,26.80
2018-07-24T23:02:44.151Z,26.70
2018-07-24T23:05:11.548Z,26.70
2018-07-24T23:07:38.892Z,26.60
2018-07-24T23:10:06.312Z,26.50
2018-07-24T23:12:33.736Z,26.50
2018-07-24T23:15:01.111Z,26.50
2018-07-24T23:17:28.573Z,26.40
2018-07-24T23:19:55.963Z,26.30
2018-07-24T23:22:23.364Z,26.30
2018-07-24T23:24:50.781Z,26.30
2018-07-24T23:27:18.142Z,26.20
2018-07-24T23:29:45.522Z,26.20
2018-07-24T23:32:12.987Z,26.10
2018-07-24T23:34:40.621Z,26.30
2018-07-24T23:37:08.107Z,26.10
2018-07-24T23:39:35.456Z,26.00
2018-07-24T23:42:03.083Z,26.00
2018-07-24T23:44:30.526Z,25.90
2018-07-24T23:46:57.991Z,25.80
2018-07-24T23:49:25.446Z,25.80
2018-07-24T23:51:52.993Z,25.70
2018-07-24T23:54:20.399Z,25.70
2018-07-24T23:56:49.651Z,25.60
2018-07-24T23:59:17.060Z,25.50
